sensor_id;sensor_type;location;lat;lon;timestamp;P1;durP1;ratioP1;P2;durP2;ratioP2
71566;SDS011;59403;47.456;19.120;2023-07-02T00:01:54;14.50;;;11.67;;
71566;SDS011;59403;47.456;19.120;2023-07-02T00:04:20;15.50;;;12.37;;
71566;SDS011;59403;47.456;19.120;2023-07-02T00:06:49;16.17;;;11.77;;
71566;SDS011;59403;47.456;19.120;2023-07-02T00:09:15;15.15;;;11.07;;
71566;SDS011;59403;47.456;19.120;2023-07-02T00:11:43;15.02;;;11.75;;
71566;SDS011;59403;47.456;19.120;2023-07-02T00:14:12;17.87;;;11.60;;
71566;SDS011;59403;47.456;19.120;2023-07-02T00:16:42;20.08;;;11.85;;
71566;SDS011;59403;47.456;19.120;2023-07-02T00:19:10;21.25;;;11.12;;
71566;SDS011;59403;47.456;19.120;2023-07-02T00:21:37;15.05;;;11.05;;
71566;SDS011;59403;47.456;19.120;2023-07-02T00:24:07;15.25;;;11.73;;
71566;SDS011;59403;47.456;19.120;2023-07-02T00:26:35;16.33;;;11.17;;
71566;SDS011;59403;47.456;19.120;2023-07-02T00:29:03;16.37;;;10.90;;
71566;SDS011;59403;47.456;19.120;2023-07-02T00:31:31;17.83;;;11.07;;
71566;SDS011;59403;47.456;19.120;2023-07-02T00:33:58;16.62;;;12.00;;
71566;SDS011;59403;47.456;19.120;2023-07-02T00:36:26;16.98;;;11.57;;
71566;SDS011;59403;47.456;19.120;2023-07-02T00:38:53;15.47;;;11.10;;
71566;SDS011;59403;47.456;19.120;2023-07-02T00:41:21;18.95;;;10.98;;
71566;SDS011;59403;47.456;19.120;2023-07-02T00:43:48;14.32;;;9.82;;
71566;SDS011;59403;47.456;19.120;2023-07-02T00:46:15;21.52;;;11.00;;
71566;SDS011;59403;47.456;19.120;2023-07-02T00:48:45;16.50;;;10.73;;
71566;SDS011;59403;47.456;19.120;2023-07-02T00:51:13;17.53;;;11.50;;
71566;SDS011;59403;47.456;19.120;2023-07-02T00:53:42;15.68;;;11.25;;
71566;SDS011;59403;47.456;19.120;2023-07-02T00:56:10;14.15;;;10.30;;
71566;SDS011;59403;47.456;19.120;2023-07-02T00:58:39;14.23;;;11.20;;
71566;SDS011;59403;47.456;19.120;2023-07-02T01:04:26;18.90;;;11.13;;
71566;SDS011;59403;47.456;19.120;2023-07-02T01:06:53;14.52;;;11.25;;
71566;SDS011;59403;47.456;19.120;2023-07-02T01:09:22;16.37;;;11.12;;
71566;SDS011;59403;47.456;19.120;2023-07-02T01:11:52;16.27;;;10.88;;
71566;SDS011;59403;47.456;19.120;2023-07-02T01:14:24;13.23;;;10.13;;
71566;SDS011;59403;47.456;19.120;2023-07-02T01:16:54;12.67;;;9.53;;
71566;SDS011;59403;47.456;19.120;2023-07-02T01:19:30;18.60;;;10.57;;
71566;SDS011;59403;47.456;19.120;2023-07-02T01:22:09;15.23;;;10.52;;
71566;SDS011;59403;47.456;19.120;2023-07-02T01:24:38;15.68;;;10.05;;
71566;SDS011;59403;47.456;19.120;2023-07-02T01:27:05;14.10;;;10.70;;
71566;SDS011;59403;47.456;19.120;2023-07-02T01:29:33;13.27;;;10.47;;
71566;SDS011;59403;47.456;19.120;2023-07-02T01:32:02;16.40;;;11.05;;
71566;SDS011;59403;47.456;19.120;2023-07-02T01:34:30;16.00;;;11.38;;
71566;SDS011;59403;47.456;19.120;2023-07-02T01:36:57;14.40;;;10.75;;
71566;SDS011;59403;47.456;19.120;2023-07-02T01:39:24;16.40;;;10.68;;
71566;SDS011;59403;47.456;19.120;2023-07-02T01:41:51;15.17;;;10.47;;
71566;SDS011;59403;47.456;19.120;2023-07-02T01:44:19;15.13;;;9.43;;
71566;SDS011;59403;47.456;19.120;2023-07-02T01:46:47;14.07;;;10.15;;
71566;SDS011;59403;47.456;19.120;2023-07-02T01:49:14;12.63;;;10.07;;
71566;SDS011;59403;47.456;19.120;2023-07-02T01:51:45;14.70;;;9.35;;
71566;SDS011;59403;47.456;19.120;2023-07-02T01:54:15;12.67;;;9.77;;
71566;SDS011;59403;47.456;19.120;2023-07-02T01:56:42;12.65;;;9.23;;
71566;SDS011;59403;47.456;19.120;2023-07-02T01:59:09;11.02;;;8.52;;
71566;SDS011;59403;47.456;19.120;2023-07-02T02:01:36;11.30;;;8.50;;
71566;SDS011;59403;47.456;19.120;2023-07-02T02:04:06;11.73;;;9.02;;
71566;SDS011;59403;47.456;19.120;2023-07-02T02:06:32;10.83;;;8.57;;
71566;SDS011;59403;47.456;19.120;2023-07-02T02:09:01;18.75;;;8.75;;
71566;SDS011;59403;47.456;19.120;2023-07-02T02:11:29;14.20;;;8.20;;
71566;SDS011;59403;47.456;19.120;2023-07-02T02:13:56;12.77;;;8.10;;
71566;SDS011;59403;47.456;19.120;2023-07-02T02:16:24;10.48;;;7.80;;
71566;SDS011;59403;47.456;19.120;2023-07-02T02:18:51;12.27;;;7.67;;
71566;SDS011;59403;47.456;19.120;2023-07-02T02:21:18;11.55;;;7.97;;
71566;SDS011;59403;47.456;19.120;2023-07-02T02:23:45;11.38;;;8.07;;
71566;SDS011;59403;47.456;19.120;2023-07-02T02:26:14;12.93;;;7.97;;
71566;SDS011;59403;47.456;19.120;2023-07-02T02:28:41;13.15;;;7.93;;
71566;SDS011;59403;47.456;19.120;2023-07-02T02:31:09;12.07;;;7.77;;
71566;SDS011;59403;47.456;19.120;2023-07-02T02:33:36;12.98;;;7.65;;
71566;SDS011;59403;47.456;19.120;2023-07-02T02:36:03;10.98;;;7.00;;
71566;SDS011;59403;47.456;19.120;2023-07-02T02:38:30;11.35;;;7.40;;
71566;SDS011;59403;47.456;19.120;2023-07-02T02:40:57;10.13;;;7.30;;
71566;SDS011;59403;47.456;19.120;2023-07-02T02:43:26;10.33;;;7.27;;
71566;SDS011;59403;47.456;19.120;2023-07-02T02:45:53;10.75;;;6.80;;
71566;SDS011;59403;47.456;19.120;2023-07-02T02:48:19;11.75;;;7.43;;
71566;SDS011;59403;47.456;19.120;2023-07-02T02:50:48;11.30;;;6.75;;
71566;SDS011;59403;47.456;19.120;2023-07-02T02:53:15;14.73;;;7.32;;
71566;SDS011;59403;47.456;19.120;2023-07-02T02:55:42;9.07;;;6.60;;
71566;SDS011;59403;47.456;19.120;2023-07-02T02:58:08;9.55;;;6.78;;
71566;SDS011;59403;47.456;19.120;2023-07-02T03:00:37;12.00;;;6.68;;
71566;SDS011;59403;47.456;19.120;2023-07-02T03:03:07;12.07;;;6.53;;
71566;SDS011;59403;47.456;19.120;2023-07-02T03:05:34;8.75;;;6.45;;
71566;SDS011;59403;47.456;19.120;2023-07-02T03:08:01;8.43;;;5.70;;
71566;SDS011;59403;47.456;19.120;2023-07-02T03:10:28;12.80;;;6.32;;
71566;SDS011;59403;47.456;19.120;2023-07-02T03:12:55;10.80;;;5.95;;
71566;SDS011;59403;47.456;19.120;2023-07-02T03:15:22;10.25;;;6.50;;
71566;SDS011;59403;47.456;19.120;2023-07-02T03:17:50;9.30;;;5.93;;
71566;SDS011;59403;47.456;19.120;2023-07-02T03:20:17;9.20;;;5.83;;
71566;SDS011;59403;47.456;19.120;2023-07-02T03:22:44;8.30;;;5.72;;
71566;SDS011;59403;47.456;19.120;2023-07-02T03:25:11;18.08;;;5.95;;
71566;SDS011;59403;47.456;19.120;2023-07-02T03:27:37;10.75;;;5.37;;
71566;SDS011;59403;47.456;19.120;2023-07-02T03:30:05;8.77;;;5.80;;
71566;SDS011;59403;47.456;19.120;2023-07-02T03:32:33;10.07;;;6.27;;
71566;SDS011;59403;47.456;19.120;2023-07-02T03:35:01;13.10;;;6.12;;
71566;SDS011;59403;47.456;19.120;2023-07-02T03:37:28;17.23;;;6.05;;
71566;SDS011;59403;47.456;19.120;2023-07-02T03:39:54;9.07;;;5.03;;
71566;SDS011;59403;47.456;19.120;2023-07-02T03:42:23;10.23;;;6.35;;
71566;SDS011;59403;47.456;19.120;2023-07-02T03:44:51;9.33;;;6.30;;
71566;SDS011;59403;47.456;19.120;2023-07-02T03:47:18;11.27;;;5.55;;
71566;SDS011;59403;47.456;19.120;2023-07-02T03:49:45;11.90;;;5.85;;
71566;SDS011;59403;47.456;19.120;2023-07-02T03:52:15;8.88;;;6.20;;
71566;SDS011;59403;47.456;19.120;2023-07-02T03:54:42;8.15;;;5.60;;
71566;SDS011;59403;47.456;19.120;2023-07-02T03:57:09;31.27;;;7.40;;
71566;SDS011;59403;47.456;19.120;2023-07-02T03:59:36;9.85;;;5.75;;
71566;SDS011;59403;47.456;19.120;2023-07-02T04:02:03;10.43;;;6.20;;
71566;SDS011;59403;47.456;19.120;2023-07-02T04:04:31;7.65;;;5.60;;
71566;SDS011;59403;47.456;19.120;2023-07-02T04:06:58;11.30;;;5.60;;
71566;SDS011;59403;47.456;19.120;2023-07-02T04:09:27;9.90;;;5.27;;
71566;SDS011;59403;47.456;19.120;2023-07-02T04:11:54;6.57;;;5.40;;
71566;SDS011;59403;47.456;19.120;2023-07-02T04:14:20;15.93;;;5.30;;
71566;SDS011;59403;47.456;19.120;2023-07-02T04:16:47;9.30;;;5.55;;
71566;SDS011;59403;47.456;19.120;2023-07-02T04:19:14;8.05;;;6.03;;
71566;SDS011;59403;47.456;19.120;2023-07-02T04:21:41;7.63;;;5.73;;
71566;SDS011;59403;47.456;19.120;2023-07-02T04:24:08;7.78;;;5.70;;
71566;SDS011;59403;47.456;19.120;2023-07-02T04:26:36;11.10;;;5.90;;
71566;SDS011;59403;47.456;19.120;2023-07-02T04:29:03;7.60;;;5.57;;
71566;SDS011;59403;47.456;19.120;2023-07-02T04:31:30;12.00;;;4.80;;
71566;SDS011;59403;47.456;19.120;2023-07-02T04:33:57;7.30;;;5.27;;
71566;SDS011;59403;47.456;19.120;2023-07-02T04:36:24;13.18;;;5.50;;
71566;SDS011;59403;47.456;19.120;2023-07-02T04:38:52;10.60;;;5.62;;
71566;SDS011;59403;47.456;19.120;2023-07-02T04:41:18;9.40;;;5.20;;
71566;SDS011;59403;47.456;19.120;2023-07-02T04:43:47;7.22;;;5.78;;
71566;SDS011;59403;47.456;19.120;2023-07-02T04:46:14;7.17;;;5.43;;
71566;SDS011;59403;47.456;19.120;2023-07-02T04:48:41;8.55;;;5.25;;
71566;SDS011;59403;47.456;19.120;2023-07-02T04:51:08;8.85;;;5.68;;
71566;SDS011;59403;47.456;19.120;2023-07-02T04:53:35;12.05;;;5.80;;
71566;SDS011;59403;47.456;19.120;2023-07-02T04:56:03;11.30;;;5.80;;
71566;SDS011;59403;47.456;19.120;2023-07-02T04:58:30;9.43;;;5.33;;
71566;SDS011;59403;47.456;19.120;2023-07-02T05:00:58;16.27;;;6.03;;
71566;SDS011;59403;47.456;19.120;2023-07-02T05:03:25;7.65;;;5.25;;
71566;SDS011;59403;47.456;19.120;2023-07-02T05:05:52;12.05;;;6.00;;
71566;SDS011;59403;47.456;19.120;2023-07-02T05:08:19;7.60;;;5.30;;
71566;SDS011;59403;47.456;19.120;2023-07-02T05:10:46;7.13;;;5.60;;
71566;SDS011;59403;47.456;19.120;2023-07-02T05:13:14;8.82;;;5.50;;
71566;SDS011;59403;47.456;19.120;2023-07-02T05:15:41;10.65;;;5.78;;
71566;SDS011;59403;47.456;19.120;2023-07-02T05:18:09;11.32;;;5.82;;
71566;SDS011;59403;47.456;19.120;2023-07-02T05:20:36;7.75;;;5.03;;
71566;SDS011;59403;47.456;19.120;2023-07-02T05:23:03;11.73;;;5.60;;
71566;SDS011;59403;47.456;19.120;2023-07-02T05:25:30;12.48;;;6.30;;
71566;SDS011;59403;47.456;19.120;2023-07-02T05:27:57;8.57;;;5.65;;
71566;SDS011;59403;47.456;19.120;2023-07-02T05:30:24;8.18;;;5.22;;
71566;SDS011;59403;47.456;19.120;2023-07-02T05:32:52;10.48;;;5.72;;
71566;SDS011;59403;47.456;19.120;2023-07-02T05:35:20;11.60;;;5.63;;
71566;SDS011;59403;47.456;19.120;2023-07-02T05:37:47;9.93;;;5.70;;
71566;SDS011;59403;47.456;19.120;2023-07-02T05:40:13;8.27;;;5.60;;
71566;SDS011;59403;47.456;19.120;2023-07-02T05:42:40;10.68;;;6.15;;
71566;SDS011;59403;47.456;19.120;2023-07-02T05:45:08;9.45;;;6.53;;
71566;SDS011;59403;47.456;19.120;2023-07-02T05:47:36;7.73;;;5.30;;
71566;SDS011;59403;47.456;19.120;2023-07-02T05:50:03;9.70;;;5.87;;
71566;SDS011;59403;47.456;19.120;2023-07-02T05:52:32;7.97;;;5.85;;
71566;SDS011;59403;47.456;19.120;2023-07-02T05:54:58;7.15;;;5.55;;
71566;SDS011;59403;47.456;19.120;2023-07-02T05:57:25;15.52;;;6.45;;
71566;SDS011;59403;47.456;19.120;2023-07-02T05:59:52;8.93;;;5.60;;
71566;SDS011;59403;47.456;19.120;2023-07-02T06:02:19;8.07;;;5.95;;
71566;SDS011;59403;47.456;19.120;2023-07-02T06:04:46;8.70;;;5.53;;
71566;SDS011;59403;47.456;19.120;2023-07-02T06:07:13;9.27;;;5.43;;
71566;SDS011;59403;47.456;19.120;2023-07-02T06:09:41;8.77;;;5.72;;
71566;SDS011;59403;47.456;19.120;2023-07-02T06:12:08;7.17;;;5.60;;
71566;SDS011;59403;47.456;19.120;2023-07-02T06:14:35;8.77;;;5.60;;
71566;SDS011;59403;47.456;19.120;2023-07-02T06:17:02;8.15;;;5.07;;
71566;SDS011;59403;47.456;19.120;2023-07-02T06:19:31;8.00;;;5.70;;
71566;SDS011;59403;47.456;19.120;2023-07-02T06:21:58;8.27;;;5.20;;
71566;SDS011;59403;47.456;19.120;2023-07-02T06:24:25;7.97;;;5.10;;
71566;SDS011;59403;47.456;19.120;2023-07-02T06:26:53;7.97;;;4.90;;
71566;SDS011;59403;47.456;19.120;2023-07-02T06:29:20;7.68;;;5.43;;
71566;SDS011;59403;47.456;19.120;2023-07-02T06:31:47;6.05;;;4.75;;
71566;SDS011;59403;47.456;19.120;2023-07-02T06:34:14;9.25;;;5.68;;
71566;SDS011;59403;47.456;19.120;2023-07-02T06:36:41;8.87;;;5.20;;
71566;SDS011;59403;47.456;19.120;2023-07-02T06:39:09;8.90;;;5.53;;
71566;SDS011;59403;47.456;19.120;2023-07-02T06:41:35;7.82;;;5.78;;
71566;SDS011;59403;47.456;19.120;2023-07-02T06:44:04;7.32;;;4.95;;
71566;SDS011;59403;47.456;19.120;2023-07-02T06:46:33;7.80;;;5.18;;
71566;SDS011;59403;47.456;19.120;2023-07-02T06:49:00;7.33;;;5.17;;
71566;SDS011;59403;47.456;19.120;2023-07-02T06:51:26;6.93;;;5.53;;
71566;SDS011;59403;47.456;19.120;2023-07-02T06:53:54;8.32;;;5.72;;
71566;SDS011;59403;47.456;19.120;2023-07-02T06:56:21;11.45;;;5.28;;
71566;SDS011;59403;47.456;19.120;2023-07-02T06:58:48;7.50;;;5.43;;
71566;SDS011;59403;47.456;19.120;2023-07-02T07:01:17;7.07;;;4.90;;
71566;SDS011;59403;47.456;19.120;2023-07-02T07:03:44;8.82;;;5.50;;
71566;SDS011;59403;47.456;19.120;2023-07-02T07:06:11;6.87;;;4.80;;
71566;SDS011;59403;47.456;19.120;2023-07-02T07:08:38;8.30;;;4.70;;
71566;SDS011;59403;47.456;19.120;2023-07-02T07:11:05;8.70;;;5.57;;
71566;SDS011;59403;47.456;19.120;2023-07-02T07:13:32;8.53;;;4.93;;
71566;SDS011;59403;47.456;19.120;2023-07-02T07:15:59;7.43;;;5.03;;
71566;SDS011;59403;47.456;19.120;2023-07-02T07:18:27;7.40;;;4.55;;
71566;SDS011;59403;47.456;19.120;2023-07-02T07:20:54;6.35;;;4.32;;
71566;SDS011;59403;47.456;19.120;2023-07-02T07:23:21;8.82;;;4.30;;
71566;SDS011;59403;47.456;19.120;2023-07-02T07:25:48;6.63;;;4.33;;
71566;SDS011;59403;47.456;19.120;2023-07-02T07:28:15;7.90;;;4.57;;
71566;SDS011;59403;47.456;19.120;2023-07-02T07:30:42;7.00;;;4.55;;
71566;SDS011;59403;47.456;19.120;2023-07-02T07:33:11;7.65;;;4.18;;
71566;SDS011;59403;47.456;19.120;2023-07-02T07:35:48;6.23;;;4.23;;
71566;SDS011;59403;47.456;19.120;2023-07-02T07:38:16;5.37;;;4.22;;
71566;SDS011;59403;47.456;19.120;2023-07-02T07:40:43;6.75;;;4.12;;
71566;SDS011;59403;47.456;19.120;2023-07-02T07:43:10;5.45;;;4.10;;
71566;SDS011;59403;47.456;19.120;2023-07-02T07:45:37;7.10;;;3.80;;
71566;SDS011;59403;47.456;19.120;2023-07-02T07:48:04;7.10;;;4.13;;
71566;SDS011;59403;47.456;19.120;2023-07-02T07:50:32;5.85;;;4.20;;
71566;SDS011;59403;47.456;19.120;2023-07-02T07:53:00;6.12;;;3.87;;
71566;SDS011;59403;47.456;19.120;2023-07-02T07:55:27;6.12;;;4.40;;
71566;SDS011;59403;47.456;19.120;2023-07-02T07:57:54;5.65;;;3.87;;
71566;SDS011;59403;47.456;19.120;2023-07-02T08:00:20;6.70;;;3.97;;
71566;SDS011;59403;47.456;19.120;2023-07-02T08:02:49;5.12;;;3.78;;
71566;SDS011;59403;47.456;19.120;2023-07-02T08:05:17;5.00;;;4.07;;
71566;SDS011;59403;47.456;19.120;2023-07-02T08:07:44;5.87;;;3.70;;
71566;SDS011;59403;47.456;19.120;2023-07-02T08:10:12;13.18;;;4.40;;
71566;SDS011;59403;47.456;19.120;2023-07-02T08:12:40;9.67;;;4.27;;
71566;SDS011;59403;47.456;19.120;2023-07-02T08:15:07;5.05;;;3.60;;
71566;SDS011;59403;47.456;19.120;2023-07-02T08:17:34;6.07;;;3.78;;
71566;SDS011;59403;47.456;19.120;2023-07-02T08:20:01;5.37;;;3.33;;
71566;SDS011;59403;47.456;19.120;2023-07-02T08:22:30;6.90;;;3.90;;
71566;SDS011;59403;47.456;19.120;2023-07-02T08:24:57;6.03;;;4.10;;
71566;SDS011;59403;47.456;19.120;2023-07-02T08:27:25;4.47;;;3.75;;
71566;SDS011;59403;47.456;19.120;2023-07-02T08:29:52;6.97;;;4.20;;
71566;SDS011;59403;47.456;19.120;2023-07-02T08:32:18;7.18;;;4.30;;
71566;SDS011;59403;47.456;19.120;2023-07-02T08:34:45;8.88;;;4.12;;
71566;SDS011;59403;47.456;19.120;2023-07-02T08:37:12;5.67;;;3.93;;
71566;SDS011;59403;47.456;19.120;2023-07-02T08:39:39;4.70;;;3.50;;
71566;SDS011;59403;47.456;19.120;2023-07-02T08:42:06;5.00;;;4.12;;
71566;SDS011;59403;47.456;19.120;2023-07-02T08:44:34;6.22;;;3.80;;
71566;SDS011;59403;47.456;19.120;2023-07-02T08:47:01;5.97;;;4.15;;
71566;SDS011;59403;47.456;19.120;2023-07-02T08:49:29;8.37;;;4.10;;
71566;SDS011;59403;47.456;19.120;2023-07-02T08:51:56;5.93;;;4.07;;
71566;SDS011;59403;47.456;19.120;2023-07-02T08:54:22;5.12;;;4.10;;
71566;SDS011;59403;47.456;19.120;2023-07-02T08:56:49;5.60;;;4.40;;
71566;SDS011;59403;47.456;19.120;2023-07-02T08:59:16;4.65;;;3.85;;
71566;SDS011;59403;47.456;19.120;2023-07-02T09:01:48;5.40;;;3.50;;
71566;SDS011;59403;47.456;19.120;2023-07-02T09:04:17;4.50;;;3.85;;
71566;SDS011;59403;47.456;19.120;2023-07-02T09:06:44;5.70;;;3.97;;
71566;SDS011;59403;47.456;19.120;2023-07-02T09:09:11;4.87;;;3.30;;
71566;SDS011;59403;47.456;19.120;2023-07-02T09:11:46;6.43;;;4.10;;
71566;SDS011;59403;47.456;19.120;2023-07-02T09:14:23;4.63;;;3.60;;
71566;SDS011;59403;47.456;19.120;2023-07-02T09:17:02;5.37;;;3.60;;
71566;SDS011;59403;47.456;19.120;2023-07-02T09:19:30;6.80;;;4.70;;
71566;SDS011;59403;47.456;19.120;2023-07-02T09:21:58;5.72;;;4.62;;
71566;SDS011;59403;47.456;19.120;2023-07-02T09:24:26;5.53;;;4.50;;
71566;SDS011;59403;47.456;19.120;2023-07-02T09:26:54;5.30;;;4.50;;
71566;SDS011;59403;47.456;19.120;2023-07-02T09:29:22;6.25;;;3.97;;
71566;SDS011;59403;47.456;19.120;2023-07-02T09:31:51;6.70;;;4.43;;
71566;SDS011;59403;47.456;19.120;2023-07-02T09:34:20;5.57;;;4.60;;
71566;SDS011;59403;47.456;19.120;2023-07-02T09:36:53;7.22;;;4.75;;
71566;SDS011;59403;47.456;19.120;2023-07-02T09:39:25;5.83;;;4.60;;
71566;SDS011;59403;47.456;19.120;2023-07-02T09:41:52;5.47;;;4.55;;
71566;SDS011;59403;47.456;19.120;2023-07-02T09:44:21;6.45;;;5.53;;
71566;SDS011;59403;47.456;19.120;2023-07-02T09:46:49;6.03;;;4.45;;
71566;SDS011;59403;47.456;19.120;2023-07-02T09:49:23;7.03;;;4.87;;
71566;SDS011;59403;47.456;19.120;2023-07-02T09:51:51;15.33;;;4.97;;
71566;SDS011;59403;47.456;19.120;2023-07-02T09:54:19;5.43;;;4.25;;
71566;SDS011;59403;47.456;19.120;2023-07-02T09:56:46;7.47;;;5.10;;
71566;SDS011;59403;47.456;19.120;2023-07-02T09:59:13;6.65;;;4.28;;
71566;SDS011;59403;47.456;19.120;2023-07-02T10:01:40;6.05;;;4.40;;
71566;SDS011;59403;47.456;19.120;2023-07-02T10:04:11;7.97;;;4.77;;
71566;SDS011;59403;47.456;19.120;2023-07-02T10:06:47;5.82;;;4.20;;
71566;SDS011;59403;47.456;19.120;2023-07-02T10:09:15;6.03;;;4.68;;
71566;SDS011;59403;47.456;19.120;2023-07-02T10:11:42;5.93;;;4.40;;
71566;SDS011;59403;47.456;19.120;2023-07-02T10:14:10;5.37;;;4.78;;
71566;SDS011;59403;47.456;19.120;2023-07-02T10:16:50;5.33;;;4.20;;
71566;SDS011;59403;47.456;19.120;2023-07-02T10:19:18;9.32;;;4.43;;
71566;SDS011;59403;47.456;19.120;2023-07-02T10:21:47;7.65;;;5.50;;
71566;SDS011;59403;47.456;19.120;2023-07-02T10:24:27;8.38;;;4.45;;
71566;SDS011;59403;47.456;19.120;2023-07-02T10:26:55;6.20;;;4.53;;
71566;SDS011;59403;47.456;19.120;2023-07-02T10:29:23;27.00;;;5.60;;
71566;SDS011;59403;47.456;19.120;2023-07-02T10:31:51;6.00;;;4.18;;
71566;SDS011;59403;47.456;19.120;2023-07-02T10:34:28;9.73;;;4.93;;
71566;SDS011;59403;47.456;19.120;2023-07-02T10:36:58;5.82;;;4.60;;
71566;SDS011;59403;47.456;19.120;2023-07-02T10:39:26;7.18;;;3.87;;
71566;SDS011;59403;47.456;19.120;2023-07-02T10:42:03;5.43;;;3.93;;
71566;SDS011;59403;47.456;19.120;2023-07-02T10:44:30;5.45;;;4.00;;
71566;SDS011;59403;47.456;19.120;2023-07-02T10:46:57;7.45;;;4.05;;
71566;SDS011;59403;47.456;19.120;2023-07-02T10:49:30;6.22;;;3.78;;
71566;SDS011;59403;47.456;19.120;2023-07-02T10:51:59;7.62;;;4.68;;
71566;SDS011;59403;47.456;19.120;2023-07-02T10:54:37;5.53;;;4.20;;
71566;SDS011;59403;47.456;19.120;2023-07-02T10:57:06;4.47;;;4.05;;
71566;SDS011;59403;47.456;19.120;2023-07-02T10:59:32;6.22;;;5.07;;
71566;SDS011;59403;47.456;19.120;2023-07-02T11:01:59;7.10;;;4.05;;
71566;SDS011;59403;47.456;19.120;2023-07-02T11:04:28;6.12;;;4.43;;
71566;SDS011;59403;47.456;19.120;2023-07-02T11:06:55;6.43;;;4.43;;
71566;SDS011;59403;47.456;19.120;2023-07-02T11:09:24;5.68;;;4.45;;
71566;SDS011;59403;47.456;19.120;2023-07-02T11:11:53;5.00;;;4.18;;
71566;SDS011;59403;47.456;19.120;2023-07-02T11:14:27;5.93;;;3.90;;
71566;SDS011;59403;47.456;19.120;2023-07-02T11:16:55;4.70;;;4.25;;
71566;SDS011;59403;47.456;19.120;2023-07-02T11:19:22;5.03;;;3.50;;
71566;SDS011;59403;47.456;19.120;2023-07-02T11:21:50;45.90;;;6.72;;
71566;SDS011;59403;47.456;19.120;2023-07-02T11:24:30;7.53;;;4.40;;
71566;SDS011;59403;47.456;19.120;2023-07-02T11:26:58;5.43;;;3.90;;
71566;SDS011;59403;47.456;19.120;2023-07-02T11:29:25;5.37;;;3.90;;
71566;SDS011;59403;47.456;19.120;2023-07-02T11:31:52;5.60;;;3.80;;
71566;SDS011;59403;47.456;19.120;2023-07-02T11:34:20;6.20;;;4.15;;
71566;SDS011;59403;47.456;19.120;2023-07-02T11:36:49;5.90;;;4.40;;
71566;SDS011;59403;47.456;19.120;2023-07-02T11:39:19;6.75;;;4.22;;
71566;SDS011;59403;47.456;19.120;2023-07-02T11:41:47;7.00;;;3.83;;
71566;SDS011;59403;47.456;19.120;2023-07-02T11:44:15;7.50;;;4.13;;
71566;SDS011;59403;47.456;19.120;2023-07-02T11:46:42;5.22;;;3.55;;
71566;SDS011;59403;47.456;19.120;2023-07-02T11:49:09;4.65;;;4.15;;
71566;SDS011;59403;47.456;19.120;2023-07-02T11:51:36;6.12;;;3.47;;
71566;SDS011;59403;47.456;19.120;2023-07-02T11:54:04;6.00;;;3.62;;
71566;SDS011;59403;47.456;19.120;2023-07-02T11:56:31;5.77;;;4.23;;
71566;SDS011;59403;47.456;19.120;2023-07-02T11:59:00;7.15;;;3.80;;
71566;SDS011;59403;47.456;19.120;2023-07-02T12:01:27;5.25;;;4.03;;
71566;SDS011;59403;47.456;19.120;2023-07-02T12:03:53;4.37;;;3.40;;
71566;SDS011;59403;47.456;19.120;2023-07-02T12:06:20;7.05;;;3.97;;
71566;SDS011;59403;47.456;19.120;2023-07-02T12:08:48;6.13;;;3.60;;
71566;SDS011;59403;47.456;19.120;2023-07-02T12:11:15;7.47;;;3.35;;
71566;SDS011;59403;47.456;19.120;2023-07-02T12:13:42;7.20;;;3.67;;
71566;SDS011;59403;47.456;19.120;2023-07-02T12:16:10;5.65;;;3.28;;
71566;SDS011;59403;47.456;19.120;2023-07-02T12:18:37;4.20;;;3.75;;
71566;SDS011;59403;47.456;19.120;2023-07-02T12:21:04;4.33;;;3.20;;
71566;SDS011;59403;47.456;19.120;2023-07-02T12:23:31;5.15;;;3.62;;
71566;SDS011;59403;47.456;19.120;2023-07-02T12:25:58;4.75;;;3.15;;
71566;SDS011;59403;47.456;19.120;2023-07-02T12:28:25;4.57;;;3.65;;
71566;SDS011;59403;47.456;19.120;2023-07-02T12:30:52;4.97;;;3.45;;
71566;SDS011;59403;47.456;19.120;2023-07-02T12:33:20;5.53;;;2.83;;
71566;SDS011;59403;47.456;19.120;2023-07-02T12:35:47;4.05;;;3.28;;
71566;SDS011;59403;47.456;19.120;2023-07-02T12:38:14;6.87;;;4.05;;
71566;SDS011;59403;47.456;19.120;2023-07-02T12:40:41;5.78;;;3.72;;
71566;SDS011;59403;47.456;19.120;2023-07-02T12:43:08;4.55;;;3.78;;
71566;SDS011;59403;47.456;19.120;2023-07-02T12:45:35;6.30;;;3.37;;
71566;SDS011;59403;47.456;19.120;2023-07-02T12:48:02;5.03;;;3.80;;
71566;SDS011;59403;47.456;19.120;2023-07-02T12:50:30;7.55;;;3.58;;
71566;SDS011;59403;47.456;19.120;2023-07-02T12:52:57;4.10;;;3.20;;
71566;SDS011;59403;47.456;19.120;2023-07-02T12:55:24;4.18;;;3.20;;
71566;SDS011;59403;47.456;19.120;2023-07-02T12:57:51;3.67;;;3.37;;
71566;SDS011;59403;47.456;19.120;2023-07-02T13:00:18;4.35;;;2.92;;
71566;SDS011;59403;47.456;19.120;2023-07-02T13:02:46;5.62;;;3.08;;
71566;SDS011;59403;47.456;19.120;2023-07-02T13:11:06;6.17;;;1.97;;
71566;SDS011;59403;47.456;19.120;2023-07-02T13:13:33;8.13;;;2.40;;
71566;SDS011;59403;47.456;19.120;2023-07-02T13:16:01;6.75;;;2.55;;
71566;SDS011;59403;47.456;19.120;2023-07-02T13:18:28;3.50;;;2.30;;
71566;SDS011;59403;47.456;19.120;2023-07-02T13:20:55;4.57;;;3.30;;
71566;SDS011;59403;47.456;19.120;2023-07-02T13:23:22;3.40;;;2.60;;
71566;SDS011;59403;47.456;19.120;2023-07-02T13:25:49;2.92;;;2.62;;
71566;SDS011;59403;47.456;19.120;2023-07-02T13:28:18;3.80;;;2.30;;
71566;SDS011;59403;47.456;19.120;2023-07-02T13:30:46;7.30;;;2.50;;
71566;SDS011;59403;47.456;19.120;2023-07-02T13:33:13;4.55;;;2.28;;
71566;SDS011;59403;47.456;19.120;2023-07-02T13:35:40;2.70;;;1.90;;
71566;SDS011;59403;47.456;19.120;2023-07-02T13:38:09;3.53;;;1.83;;
71566;SDS011;59403;47.456;19.120;2023-07-02T13:40:36;4.85;;;1.87;;
71566;SDS011;59403;47.456;19.120;2023-07-02T13:43:03;3.85;;;1.70;;
71566;SDS011;59403;47.456;19.120;2023-07-02T13:45:31;4.05;;;1.80;;
71566;SDS011;59403;47.456;19.120;2023-07-02T13:47:58;2.53;;;1.37;;
71566;SDS011;59403;47.456;19.120;2023-07-02T13:50:25;1.48;;;1.20;;
71566;SDS011;59403;47.456;19.120;2023-07-02T13:52:52;2.90;;;1.40;;
71566;SDS011;59403;47.456;19.120;2023-07-02T13:55:19;1.62;;;1.27;;
71566;SDS011;59403;47.456;19.120;2023-07-02T13:57:51;2.45;;;1.45;;
71566;SDS011;59403;47.456;19.120;2023-07-02T14:00:29;3.83;;;1.50;;
71566;SDS011;59403;47.456;19.120;2023-07-02T14:02:59;3.50;;;1.62;;
71566;SDS011;59403;47.456;19.120;2023-07-02T14:05:27;2.37;;;1.70;;
71566;SDS011;59403;47.456;19.120;2023-07-02T14:07:54;1.75;;;1.40;;
71566;SDS011;59403;47.456;19.120;2023-07-02T14:10:22;2.40;;;1.70;;
71566;SDS011;59403;47.456;19.120;2023-07-02T14:12:49;2.90;;;1.40;;
71566;SDS011;59403;47.456;19.120;2023-07-02T14:15:16;2.97;;;1.55;;
71566;SDS011;59403;47.456;19.120;2023-07-02T14:17:44;3.17;;;1.30;;
71566;SDS011;59403;47.456;19.120;2023-07-02T14:20:11;7.20;;;1.87;;
71566;SDS011;59403;47.456;19.120;2023-07-02T14:22:38;3.97;;;1.45;;
71566;SDS011;59403;47.456;19.120;2023-07-02T14:25:06;3.10;;;1.50;;
71566;SDS011;59403;47.456;19.120;2023-07-02T14:27:34;4.82;;;1.90;;
71566;SDS011;59403;47.456;19.120;2023-07-02T14:30:03;3.60;;;1.95;;
71566;SDS011;59403;47.456;19.120;2023-07-02T14:32:32;5.78;;;1.87;;
71566;SDS011;59403;47.456;19.120;2023-07-02T14:35:01;2.30;;;1.70;;
71566;SDS011;59403;47.456;19.120;2023-07-02T14:37:28;3.83;;;1.80;;
71566;SDS011;59403;47.456;19.120;2023-07-02T14:39:55;2.35;;;2.00;;
71566;SDS011;59403;47.456;19.120;2023-07-02T14:42:22;2.22;;;1.98;;